Time;durP1;ratioP1;P1;durP2;ratioP2;P2;SDS_P1;SDS_P2;PMS_P1;PMS_P2;Temp;Humidity;BMP_temperature;BMP_pressure;BME280_temperature;BME280_humidity;BME280_pressure;Samples;Min_cycle;Max_cycle;Signal;HPM_P1;HPM_P2
2023/06/04 00:00:36;;;;;;;;;;;13.80;86.60;;;;;;5065289;28;19924;-72
2023/06/04 00:03:02;;;;;;;;;;;13.70;86.90;;;;;;5052519;28;20857;-71
2023/06/04 00:05:27;;;;;;;;;;;13.70;87.30;;;;;;5059415;28;19928;-72
2023/06/04 00:07:53;;;;;;;;;;;13.70;88.20;;;;;;5046941;28;20612;-71
2023/06/04 00:10:18;;;;;;;;;;;13.60;88.90;;;;;;5043524;28;19924;-71
2023/06/04 00:12:44;;;;;;;;;;;13.60;89.50;;;;;;5053339;28;19968;-70
2023/06/04 00:15:10;;;;;;;;;;;13.60;90.00;;;;;;5047006;28;19953;-71
2023/06/04 00:17:35;;;;;;;;;;;13.50;90.10;;;;;;5059073;28;19929;-71
2023/06/04 00:20:01;;;;;;;;;;;13.50;90.60;;;;;;5050475;28;19934;-71
2023/06/04 00:22:27;;;;;;;;;;;13.40;90.20;;;;;;5049497;28;19931;-71
2023/06/04 00:24:52;;;;;;;;;;;13.40;91.30;;;;;;5057828;28;19920;-70
2023/06/04 00:27:18;;;;;;;;;;;13.40;91.80;;;;;;5045131;28;20442;-71
2023/06/04 00:29:43;;;;;;;;;;;13.30;92.00;;;;;;5050909;28;19920;-71
2023/06/04 00:32:09;;;;;;;;;;;13.30;92.30;;;;;;5055788;28;19939;-70
2023/06/04 00:34:34;;;;;;;;;;;13.30;92.70;;;;;;5055802;28;19928;-71
2023/06/04 00:37:01;;;;;;;;;;;13.20;93.10;;;;;;5043029;28;19927;-71
2023/06/04 00:39:27;;;;;;;;;;;13.20;93.40;;;;;;5044863;28;19931;-70
2023/06/04 00:41:52;;;;;;;;;;;13.20;93.70;;;;;;5049815;28;20314;-71
2023/06/04 00:44:18;;;;;;;;;;;13.20;94.20;;;;;;5043031;28;19932;-71
2023/06/04 00:46:45;;;;;;;;;;;13.10;94.40;;;;;;5056825;28;19934;-71
2023/06/04 00:49:12;;;;;;;;;;;13.10;94.80;;;;;;5050926;28;19928;-70
2023/06/04 00:51:37;;;;;;;;;;;13.00;95.20;;;;;;5048713;28;20020;-71
2023/06/04 00:54:08;;;;;;;;;;;13.00;95.50;;;;;;5075198;28;19987;-71
2023/06/04 00:56:34;;;;;;;;;;;13.00;96.10;;;;;;5053313;28;19927;-71
2023/06/04 00:59:00;;;;;;;;;;;12.90;96.40;;;;;;5047686;28;19924;-70
2023/06/04 01:01:35;;;;;;;;;;;12.90;96.90;;;;;;5038925;28;19932;-71
2023/06/04 01:04:02;;;;;;;;;;;12.90;97.00;;;;;;5054463;28;19924;-71
2023/06/04 01:06:43;;;;;;;;;;;12.80;97.50;;;;;;5062587;28;19931;-71
2023/06/04 01:09:10;;;;;;;;;;;12.80;98.00;;;;;;5048104;28;19997;-72
2023/06/04 01:11:37;;;;;;;;;;;12.80;97.70;;;;;;5058393;28;20384;-70
2023/06/04 01:14:03;;;;;;;;;;;12.80;98.80;;;;;;5053450;28;19924;-72
2023/06/04 01:16:31;;;;;;;;;;;12.70;98.90;;;;;;5060179;28;19924;-70
2023/06/04 01:18:59;;;;;;;;;;;12.70;99.40;;;;;;5076986;28;19924;-70
2023/06/04 01:21:26;;;;;;;;;;;12.70;99.40;;;;;;5053373;28;19924;-70
2023/06/04 01:23:58;;;;;;;;;;;12.70;99.90;;;;;;5057267;28;19928;-70
2023/06/04 01:26:27;;;;;;;;;;;12.60;99.90;;;;;;5045049;28;20007;-71
2023/06/04 01:28:54;;;;;;;;;;;12.60;99.90;;;;;;5058127;28;20341;-70
2023/06/04 01:31:22;;;;;;;;;;;12.60;99.90;;;;;;5047728;28;19921;-70
2023/06/04 01:33:50;;;;;;;;;;;12.60;99.90;;;;;;5052809;28;19981;-70
2023/06/04 01:36:16;;;;;;;;;;;12.60;99.90;;;;;;5056182;28;19920;-71
2023/06/04 01:38:42;;;;;;;;;;;12.60;99.90;;;;;;5066178;28;19920;-71
2023/06/04 01:41:07;;;;;;;;;;;12.50;99.90;;;;;;5060214;28;19924;-70
2023/06/04 01:43:35;;;;;;;;;;;12.50;99.90;;;;;;5057067;28;20360;-70
2023/06/04 01:46:01;;;;;;;;;;;12.40;99.90;;;;;;5063678;28;20782;-70
2023/06/04 01:48:26;;;;;;;;;;;12.40;99.90;;;;;;5037263;28;19978;-72
2023/06/04 01:50:54;;;;;;;;;;;12.30;99.90;;;;;;5051973;28;20291;-72
2023/06/04 01:53:20;;;;;;;;;;;12.30;99.90;;;;;;5058842;28;19937;-71
2023/06/04 01:55:45;;;;;;;;;;;12.30;99.90;;;;;;5056751;28;19924;-71
2023/06/04 01:58:11;;;;;;;;;;;12.30;99.90;;;;;;5070237;28;19916;-70
2023/06/04 02:00:36;;;;;;;;;;;12.20;99.90;;;;;;5055167;28;20008;-71
2023/06/04 02:03:02;;;;;;;;;;;12.20;99.90;;;;;;5049600;28;19966;-71
2023/06/04 02:05:28;;;;;;;;;;;12.20;99.90;;;;;;5057193;28;19928;-70
2023/06/04 02:07:53;;;;;;;;;;;12.20;99.90;;;;;;5049902;28;19931;-71
2023/06/04 02:10:19;;;;;;;;;;;12.10;99.90;;;;;;5036838;28;19916;-70
2023/06/04 02:13:04;;;;;;;;;;;12.10;99.90;;;;;;5049171;28;20436;-70
2023/06/04 02:15:31;;;;;;;;;;;12.10;99.90;;;;;;5035666;28;19951;-70
2023/06/04 02:18:02;;;;;;;;;;;12.00;99.90;;;;;;5054509;28;21896;-70
2023/06/04 02:20:28;;;;;;;;;;;12.00;99.90;;;;;;5093912;27;19925;-70
2023/06/04 02:22:57;;;;;;;;;;;12.00;99.90;;;;;;5047321;28;19978;-71
2023/06/04 02:25:23;;;;;;;;;;;12.00;99.90;;;;;;5042162;28;20023;-70
2023/06/04 02:27:48;;;;;;;;;;;11.90;99.90;;;;;;5059735;28;19925;-71
2023/06/04 02:30:16;;;;;;;;;;;11.90;99.90;;;;;;5083860;27;19936;-70
2023/06/04 02:32:44;;;;;;;;;;;11.90;99.90;;;;;;5064637;28;19924;-70
2023/06/04 02:35:10;;;;;;;;;;;11.90;99.90;;;;;;5056271;28;19924;-70
2023/06/04 02:37:35;;;;;;;;;;;11.80;99.90;;;;;;5047679;28;19954;-70
2023/06/04 02:40:01;;;;;;;;;;;11.80;99.90;;;;;;5053222;28;20326;-71
2023/06/04 02:42:27;;;;;;;;;;;11.70;99.90;;;;;;5058742;28;19955;-70
2023/06/04 02:44:52;;;;;;;;;;;11.70;99.90;;;;;;5039434;28;19928;-71
2023/06/04 02:47:19;;;;;;;;;;;11.70;99.90;;;;;;5052346;28;19987;-71
2023/06/04 02:49:46;;;;;;;;;;;11.70;99.90;;;;;;5037350;28;20307;-70
2023/06/04 02:52:11;;;;;;;;;;;11.70;99.90;;;;;;5040415;28;19953;-70
2023/06/04 02:54:37;;;;;;;;;;;11.60;99.90;;;;;;5044478;28;20382;-70
2023/06/04 02:57:03;;;;;;;;;;;11.60;99.90;;;;;;5041695;28;19925;-70
2023/06/04 02:59:28;;;;;;;;;;;11.60;99.90;;;;;;5042908;28;19928;-69
2023/06/04 03:01:54;;;;;;;;;;;11.60;99.90;;;;;;5064588;28;20311;-71
2023/06/04 03:04:20;;;;;;;;;;;11.60;99.90;;;;;;5058500;28;19924;-71
2023/06/04 03:06:47;;;;;;;;;;;11.60;99.90;;;;;;5057050;28;20413;-69
2023/06/04 03:09:12;;;;;;;;;;;11.60;99.90;;;;;;5038105;28;19934;-70
2023/06/04 03:11:38;;;;;;;;;;;11.60;99.90;;;;;;5035972;28;19925;-71
2023/06/04 03:14:03;;;;;;;;;;;11.60;99.90;;;;;;5045592;28;20770;-69
2023/06/04 03:16:29;;;;;;;;;;;11.60;99.90;;;;;;5051500;28;19924;-70
2023/06/04 03:18:56;;;;;;;;;;;11.60;99.90;;;;;;5047060;28;19949;-70
2023/06/04 03:21:21;;;;;;;;;;;11.50;99.90;;;;;;5054268;28;20379;-70
2023/06/04 03:23:47;;;;;;;;;;;11.60;99.90;;;;;;5038668;28;19963;-70
2023/06/04 03:26:13;;;;;;;;;;;11.60;99.90;;;;;;5048572;28;20041;-71
2023/06/04 03:28:38;;;;;;;;;;;11.50;99.90;;;;;;5033528;28;19924;-71
2023/06/04 03:31:04;;;;;;;;;;;11.50;99.90;;;;;;5041185;28;19925;-71
2023/06/04 03:33:29;;;;;;;;;;;11.50;99.90;;;;;;5048907;28;19924;-71
2023/06/04 03:35:58;;;;;;;;;;;11.50;99.90;;;;;;5044845;28;19924;-70
2023/06/04 03:38:24;;;;;;;;;;;11.50;99.90;;;;;;5045250;28;19924;-70
2023/06/04 03:40:50;;;;;;;;;;;11.50;99.90;;;;;;5064281;28;20575;-70
2023/06/04 03:43:15;;;;;;;;;;;11.40;99.90;;;;;;5049440;28;19925;-71
2023/06/04 03:45:41;;;;;;;;;;;11.40;99.90;;;;;;5042383;28;19990;-70
2023/06/04 03:48:07;;;;;;;;;;;11.40;99.90;;;;;;5057374;28;19923;-71
2023/06/04 03:50:32;;;;;;;;;;;11.40;99.90;;;;;;5035872;28;19925;-71
2023/06/04 03:52:58;;;;;;;;;;;11.50;99.90;;;;;;5048214;28;19946;-70
2023/06/04 03:55:24;;;;;;;;;;;11.50;99.90;;;;;;5053756;28;19920;-70
2023/06/04 03:57:49;;;;;;;;;;;11.40;99.90;;;;;;5059108;28;19924;-71
2023/06/04 04:00:15;;;;;;;;;;;11.50;99.90;;;;;;5068534;28;19923;-70
2023/06/04 04:02:41;;;;;;;;;;;11.60;99.90;;;;;;5054355;28;20397;-70
2023/06/04 04:05:07;;;;;;;;;;;11.50;99.90;;;;;;5053325;28;19928;-70
2023/06/04 04:07:32;;;;;;;;;;;11.60;99.90;;;;;;5049865;28;19968;-71
2023/06/04 04:09:58;;;;;;;;;;;11.60;99.90;;;;;;5048568;28;19970;-70
2023/06/04 04:12:23;;;;;;;;;;;11.60;99.90;;;;;;5055490;28;19923;-71
2023/06/04 04:14:49;;;;;;;;;;;11.60;99.90;;;;;;5054072;28;19928;-70
2023/06/04 04:17:15;;;;;;;;;;;11.60;99.90;;;;;;5055041;28;19932;-70
2023/06/04 04:19:40;;;;;;;;;;;11.60;99.90;;;;;;5058870;28;19925;-70
2023/06/04 04:22:06;;;;;;;;;;;11.60;99.90;;;;;;5043001;28;19925;-70
2023/06/04 04:24:34;;;;;;;;;;;11.70;99.90;;;;;;5056380;28;19924;-70
2023/06/04 04:26:59;;;;;;;;;;;11.70;99.90;;;;;;5034252;28;20015;-69
2023/06/04 04:29:25;;;;;;;;;;;11.60;99.90;;;;;;5045498;28;19925;-70
2023/06/04 04:31:51;;;;;;;;;;;11.60;99.90;;;;;;5045520;28;20379;-71
2023/06/04 04:34:21;;;;;;;;;;;11.70;99.90;;;;;;5036868;28;19920;-71
2023/06/04 04:36:52;;;;;;;;;;;11.70;99.90;;;;;;5056136;28;19987;-71
2023/06/04 04:39:26;;;;;;;;;;;11.70;99.90;;;;;;5051905;28;19947;-70
2023/06/04 04:41:52;;;;;;;;;;;11.70;99.90;;;;;;5056554;28;19935;-70
2023/06/04 04:44:17;;;;;;;;;;;11.70;99.90;;;;;;5042931;28;19917;-70
2023/06/04 04:46:43;;;;;;;;;;;11.70;99.90;;;;;;5040288;28;19931;-70
2023/06/04 04:49:08;;;;;;;;;;;11.70;99.90;;;;;;5062533;28;19973;-71
2023/06/04 04:51:34;;;;;;;;;;;11.80;99.90;;;;;;5042631;28;19927;-70
2023/06/04 04:54:03;;;;;;;;;;;11.80;99.90;;;;;;5052537;28;20410;-70
2023/06/04 04:56:28;;;;;;;;;;;11.90;99.90;;;;;;5041355;28;19925;-70
2023/06/04 04:58:54;;;;;;;;;;;11.90;99.90;;;;;;5050442;28;19925;-70
2023/06/04 05:01:20;;;;;;;;;;;11.90;99.90;;;;;;5055900;28;19960;-71
2023/06/04 05:03:46;;;;;;;;;;;12.00;99.90;;;;;;5046355;28;20494;-70
2023/06/04 05:06:11;;;;;;;;;;;12.00;99.90;;;;;;5059049;28;19932;-71
2023/06/04 05:08:37;;;;;;;;;;;12.10;99.90;;;;;;5052050;28;20014;-70
2023/06/04 05:11:02;;;;;;;;;;;12.20;99.90;;;;;;5052183;28;19924;-70
2023/06/04 05:13:28;;;;;;;;;;;12.20;99.90;;;;;;5061882;28;19969;-70
2023/06/04 05:15:53;;;;;;;;;;;12.30;99.90;;;;;;5052888;28;20023;-69
2023/06/04 05:18:20;;;;;;;;;;;12.30;99.90;;;;;;5055185;28;19923;-71
2023/06/04 05:20:46;;;;;;;;;;;12.40;99.90;;;;;;5059488;28;19924;-70
2023/06/04 05:23:12;;;;;;;;;;;12.40;99.90;;;;;;5100624;27;20713;-70
2023/06/04 05:25:38;;;;;;;;;;;12.50;99.90;;;;;;5078892;28;20010;-72
2023/06/04 05:28:05;;;;;;;;;;;12.50;99.90;;;;;;5053175;28;21397;-72
2023/06/04 05:30:31;;;;;;;;;;;12.60;99.90;;;;;;5052212;28;19928;-70
2023/06/04 05:32:57;;;;;;;;;;;12.70;99.90;;;;;;5038863;28;19925;-70
2023/06/04 05:35:22;;;;;;;;;;;12.70;99.90;;;;;;5038597;28;19940;-70
2023/06/04 05:37:54;;;;;;;;;;;12.70;99.90;;;;;;5057417;28;19969;-71
2023/06/04 05:40:21;;;;;;;;;;;12.80;99.90;;;;;;5059094;28;19932;-70
2023/06/04 05:42:47;;;;;;;;;;;12.80;99.90;;;;;;5036652;28;19931;-71
2023/06/04 05:45:12;;;;;;;;;;;12.90;99.90;;;;;;5050216;28;20260;-70
2023/06/04 05:47:38;;;;;;;;;;;12.90;99.90;;;;;;5045920;28;19931;-69
2023/06/04 05:50:04;;;;;;;;;;;13.00;99.90;;;;;;5061637;28;20062;-71
2023/06/04 05:52:29;;;;;;;;;;;13.00;99.90;;;;;;5040328;28;19931;-71
2023/06/04 05:54:55;;;;;;;;;;;13.10;99.90;;;;;;5059405;28;19928;-71
2023/06/04 05:57:21;;;;;;;;;;;13.10;99.90;;;;;;5063918;28;19920;-70
2023/06/04 05:59:46;;;;;;;;;;;13.20;99.90;;;;;;5051694;28;19924;-70
2023/06/04 06:02:13;;;;;;;;;;;13.30;99.90;;;;;;5046431;28;20015;-70
2023/06/04 06:04:41;;;;;;;;;;;13.30;99.90;;;;;;5047271;28;20007;-70
2023/06/04 06:07:06;;;;;;;;;;;13.40;99.90;;;;;;5055762;28;20392;-70
2023/06/04 06:09:32;;;;;;;;;;;13.50;99.90;;;;;;5084915;27;20015;-70
2023/06/04 06:11:58;;;;;;;;;;;13.60;99.90;;;;;;5063931;28;19925;-72
2023/06/04 06:14:23;;;;;;;;;;;13.70;99.90;;;;;;5051819;28;20272;-71
2023/06/04 06:16:49;;;;;;;;;;;13.70;99.90;;;;;;5066590;28;20310;-69
2023/06/04 06:19:15;;;;;;;;;;;13.80;99.90;;;;;;5041651;28;19968;-68
2023/06/04 06:21:40;;;;;;;;;;;13.80;99.90;;;;;;5040449;28;20391;-68
2023/06/04 06:24:06;;;;;;;;;;;13.90;99.90;;;;;;5042230;28;19925;-70
2023/06/04 06:26:31;;;;;;;;;;;14.00;99.90;;;;;;5041684;28;19971;-68
2023/06/04 06:28:57;;;;;;;;;;;14.00;99.90;;;;;;5056884;28;20425;-70
2023/06/04 06:31:23;;;;;;;;;;;14.10;99.90;;;;;;5061425;28;19929;-69
2023/06/04 06:33:48;;;;;;;;;;;14.10;99.90;;;;;;5053637;28;19967;-73
2023/06/04 06:36:14;;;;;;;;;;;14.20;99.90;;;;;;5054432;28;20912;-71
2023/06/04 06:38:40;;;;;;;;;;;14.30;99.90;;;;;;5064788;28;20012;-73
2023/06/04 06:41:05;;;;;;;;;;;14.40;99.90;;;;;;5058333;28;20590;-72
2023/06/04 06:43:31;;;;;;;;;;;14.40;99.90;;;;;;5066115;28;19920;-71
2023/06/04 06:45:57;;;;;;;;;;;14.50;99.90;;;;;;5053046;28;20383;-71
2023/06/04 06:48:23;;;;;;;;;;;14.50;99.90;;;;;;5035068;28;20015;-72
2023/06/04 06:50:48;;;;;;;;;;;14.60;99.90;;;;;;5054332;28;19961;-72
2023/06/04 06:53:14;;;;;;;;;;;14.70;99.90;;;;;;5036231;28;19929;-72
2023/06/04 06:55:40;;;;;;;;;;;14.80;99.90;;;;;;5054901;28;20310;-71
2023/06/04 06:58:05;;;;;;;;;;;14.90;99.90;;;;;;5035868;28;20016;-72
2023/06/04 07:00:31;;;;;;;;;;;14.90;99.90;;;;;;5049789;28;20027;-72
2023/06/04 07:02:56;;;;;;;;;;;15.00;99.90;;;;;;5053862;28;20015;-74
2023/06/04 07:05:22;;;;;;;;;;;15.10;99.90;;;;;;5045530;28;19931;-73
2023/06/04 07:07:47;;;;;;;;;;;15.20;99.90;;;;;;5037782;28;19924;-73
2023/06/04 07:10:13;;;;;;;;;;;15.30;99.90;;;;;;5044283;28;19955;-72
2023/06/04 07:12:39;;;;;;;;;;;15.40;99.90;;;;;;5054431;28;20350;-73
2023/06/04 07:15:05;;;;;;;;;;;15.40;99.90;;;;;;5033555;28;19924;-72
2023/06/04 07:17:31;;;;;;;;;;;15.50;99.90;;;;;;5049531;28;19920;-73
2023/06/04 07:19:56;;;;;;;;;;;15.50;99.90;;;;;;5051521;28;21147;-72
2023/06/04 07:22:22;;;;;;;;;;;15.60;99.90;;;;;;5053660;28;20390;-71
2023/06/04 07:24:47;;;;;;;;;;;15.70;99.90;;;;;;5046330;28;20346;-72
2023/06/04 07:27:13;;;;;;;;;;;15.70;99.90;;;;;;5038523;28;20362;-72
2023/06/04 07:29:39;;;;;;;;;;;15.80;99.90;;;;;;5062427;28;20393;-70
2023/06/04 07:32:05;;;;;;;;;;;15.80;99.90;;;;;;5048964;28;19936;-72
2023/06/04 07:34:34;;;;;;;;;;;15.90;99.90;;;;;;5037776;28;19969;-71
2023/06/04 07:37:00;;;;;;;;;;;16.00;99.90;;;;;;5050202;28;20004;-71
2023/06/04 07:39:26;;;;;;;;;;;16.10;99.90;;;;;;5055216;28;20364;-71
2023/06/04 07:41:51;;;;;;;;;;;16.20;99.90;;;;;;5037564;28;19931;-72
2023/06/04 07:44:17;;;;;;;;;;;16.20;99.90;;;;;;5050962;28;19924;-72
2023/06/04 07:46:42;;;;;;;;;;;16.30;99.90;;;;;;5058218;28;20379;-72
2023/06/04 07:49:08;;;;;;;;;;;16.40;99.90;;;;;;5047611;28;19924;-71
2023/06/04 07:51:34;;;;;;;;;;;16.50;99.90;;;;;;5061481;28;19970;-71
2023/06/04 07:54:00;;;;;;;;;;;16.50;99.90;;;;;;5061620;28;19927;-71
2023/06/04 07:56:26;;;;;;;;;;;16.60;99.90;;;;;;5044512;28;19927;-72
2023/06/04 07:58:52;;;;;;;;;;;16.70;99.90;;;;;;5050978;28;19986;-71
2023/06/04 08:01:17;;;;;;;;;;;16.70;99.90;;;;;;5046377;28;19971;-71
2023/06/04 08:03:43;;;;;;;;;;;16.70;99.90;;;;;;5057872;28;19956;-71
2023/06/04 08:06:09;;;;;;;;;;;16.80;99.90;;;;;;5058059;28;20306;-71
2023/06/04 08:08:38;;;;;;;;;;;16.80;99.90;;;;;;5060853;28;19924;-71
2023/06/04 08:11:03;;;;;;;;;;;16.90;99.90;;;;;;5074364;28;19924;-71
2023/06/04 08:13:29;;;;;;;;;;;17.00;99.90;;;;;;5066503;28;20464;-71
2023/06/04 08:15:55;;;;;;;;;;;17.00;99.90;;;;;;5069383;28;19928;-71
2023/06/04 08:18:20;;;;;;;;;;;17.20;99.90;;;;;;5054389;28;19945;-71
2023/06/04 08:20:46;;;;;;;;;;;17.20;99.90;;;;;;5075131;28;19924;-71
2023/06/04 08:23:11;;;;;;;;;;;17.30;99.90;;;;;;5062204;28;19931;-71
2023/06/04 08:25:37;;;;;;;;;;;17.40;99.90;;;;;;5057764;28;21023;-71
2023/06/04 08:28:02;;;;;;;;;;;17.40;99.90;;;;;;5052854;28;19924;-71
2023/06/04 08:30:29;;;;;;;;;;;17.50;99.90;;;;;;5054327;28;19942;-71
2023/06/04 08:32:54;;;;;;;;;;;17.60;99.90;;;;;;5066162;28;19971;-71
2023/06/04 08:35:20;;;;;;;;;;;17.60;99.90;;;;;;5061878;28;20030;-71
2023/06/04 08:37:46;;;;;;;;;;;17.70;99.90;;;;;;5074105;28;20028;-71
2023/06/04 08:40:12;;;;;;;;;;;17.80;99.90;;;;;;5062628;28;20241;-71
2023/06/04 08:42:40;;;;;;;;;;;17.90;99.90;;;;;;5078371;28;20003;-71
2023/06/04 08:45:09;;;;;;;;;;;18.00;99.90;;;;;;5073832;28;19978;-72
2023/06/04 08:47:36;;;;;;;;;;;18.10;99.90;;;;;;5076876;28;19978;-72
2023/06/04 08:50:02;;;;;;;;;;;18.10;99.90;;;;;;5068109;28;19993;-71
2023/06/04 08:52:27;;;;;;;;;;;18.20;99.90;;;;;;5069990;28;19924;-72
2023/06/04 08:54:56;;;;;;;;;;;18.30;99.90;;;;;;5061106;28;21735;-71
2023/06/04 08:57:22;;;;;;;;;;;18.30;99.90;;;;;;5048952;28;19965;-71
2023/06/04 08:59:48;;;;;;;;;;;18.50;99.20;;;;;;5052538;28;20287;-71
2023/06/04 09:02:14;;;;;;;;;;;18.50;99.90;;;;;;5054921;28;20264;-70
2023/06/04 09:04:40;;;;;;;;;;;18.60;98.00;;;;;;5065358;28;19924;-72
2023/06/04 09:07:06;;;;;;;;;;;18.70;99.60;;;;;;5069512;28;21577;-71
2023/06/04 09:09:36;;;;;;;;;;;18.70;99.40;;;;;;5053184;28;19924;-71
2023/06/04 09:12:03;;;;;;;;;;;18.70;98.50;;;;;;5097976;27;19924;-71
2023/06/04 09:14:29;;;;;;;;;;;18.70;98.90;;;;;;5057655;28;19928;-70
2023/06/04 09:16:58;;;;;;;;;;;18.80;98.60;;;;;;5061716;28;19924;-70
2023/06/04 09:19:24;;;;;;;;;;;18.80;98.60;;;;;;5065327;28;19925;-71
2023/06/04 09:21:51;;;;;;;;;;;18.80;97.20;;;;;;5054202;28;19924;-69
2023/06/04 09:24:17;;;;;;;;;;;18.90;96.20;;;;;;5059933;28;19924;-71
2023/06/04 09:26:43;;;;;;;;;;;18.90;98.00;;;;;;5041249;28;20573;-71
2023/06/04 09:29:08;;;;;;;;;;;18.90;97.70;;;;;;5043218;28;20020;-73
2023/06/04 09:31:38;;;;;;;;;;;19.00;97.70;;;;;;5097740;27;19942;-70
2023/06/04 09:34:03;;;;;;;;;;;19.10;97.40;;;;;;5054531;28;19927;-71
2023/06/04 09:36:33;;;;;;;;;;;19.10;97.50;;;;;;5055758;28;19925;-71
2023/06/04 09:38:58;;;;;;;;;;;19.20;95.20;;;;;;5041144;28;19925;-70
2023/06/04 09:41:25;;;;;;;;;;;19.30;95.10;;;;;;5042827;28;19927;-70
2023/06/04 09:43:59;;;;;;;;;;;19.30;96.70;;;;;;5039248;28;19982;-70
2023/06/04 09:46:25;;;;;;;;;;;19.40;96.60;;;;;;5041422;28;19928;-71
2023/06/04 09:48:59;;;;;;;;;;;19.50;96.90;;;;;;5072627;28;19925;-70
2023/06/04 09:51:24;;;;;;;;;;;19.50;93.80;;;;;;5056886;28;19920;-71
2023/06/04 09:53:57;;;;;;;;;;;19.50;93.90;;;;;;5098844;27;19920;-71
2023/06/04 09:56:22;;;;;;;;;;;19.60;95.30;;;;;;5043685;28;19920;-71
2023/06/04 09:58:53;;;;;;;;;;;19.70;95.50;;;;;;5040943;28;19932;-71
2023/06/04 10:01:20;;;;;;;;;;;19.70;92.80;;;;;;5041305;28;19921;-71
2023/06/04 10:03:50;;;;;;;;;;;19.70;92.40;;;;;;5042164;28;19925;-71
2023/06/04 10:06:17;;;;;;;;;;;19.70;92.70;;;;;;5054909;28;19966;-71
2023/06/04 10:08:45;;;;;;;;;;;19.80;94.90;;;;;;5045108;28;19924;-71
2023/06/04 10:11:11;;;;;;;;;;;19.80;95.10;;;;;;5052455;28;19928;-70
2023/06/04 10:13:57;;;;;;;;;;;19.90;95.30;;;;;;5051154;28;19925;-71
2023/06/04 10:16:25;;;;;;;;;;;20.10;94.10;;;;;;5051434;28;20019;-71
2023/06/04 10:18:52;;;;;;;;;;;20.10;92.50;;;;;;5040722;28;19924;-72
2023/06/04 10:21:18;;;;;;;;;;;20.20;91.40;;;;;;5044442;28;20350;-71
2023/06/04 10:23:44;;;;;;;;;;;20.20;91.60;;;;;;5038758;28;19924;-70
2023/06/04 10:26:13;;;;;;;;;;;20.20;90.40;;;;;;5043831;28;19921;-70
2023/06/04 10:28:40;;;;;;;;;;;20.20;90.90;;;;;;5052311;28;20423;-70
2023/06/04 10:31:06;;;;;;;;;;;20.20;92.60;;;;;;5048720;28;19927;-71
2023/06/04 10:33:31;;;;;;;;;;;20.20;92.30;;;;;;5040122;28;19924;-70
2023/06/04 10:35:57;;;;;;;;;;;20.30;92.20;;;;;;5055911;28;19930;-71
2023/06/04 10:38:23;;;;;;;;;;;20.30;91.70;;;;;;5039593;28;20017;-71
2023/06/04 10:40:49;;;;;;;;;;;20.40;92.00;;;;;;5049821;28;19970;-71
2023/06/04 10:43:18;;;;;;;;;;;20.40;90.30;;;;;;5044333;28;19925;-70
2023/06/04 10:45:44;;;;;;;;;;;20.40;92.10;;;;;;5039465;28;19932;-71
2023/06/04 10:48:10;;;;;;;;;;;20.40;91.90;;;;;;5040379;28;19925;-71
2023/06/04 10:50:47;;;;;;;;;;;20.50;92.00;;;;;;5055315;28;19920;-70
2023/06/04 10:53:13;;;;;;;;;;;20.60;91.20;;;;;;5039300;28;19924;-71
2023/06/04 10:55:45;;;;;;;;;;;20.70;91.90;;;;;;5041595;28;19932;-71
2023/06/04 10:58:11;;;;;;;;;;;20.70;91.10;;;;;;5046515;28;19925;-71
2023/06/04 11:00:36;;;;;;;;;;;20.80;90.70;;;;;;5043814;28;20303;-71
2023/06/04 11:03:03;;;;;;;;;;;20.90;91.00;;;;;;5062870;28;19939;-70
2023/06/04 11:05:45;;;;;;;;;;;20.90;88.10;;;;;;5061106;28;19920;-71
2023/06/04 11:08:13;;;;;;;;;;;21.00;90.40;;;;;;5040358;28;19928;-71
2023/06/04 11:10:44;;;;;;;;;;;21.00;86.80;;;;;;5045119;28;19925;-71
2023/06/04 11:13:10;;;;;;;;;;;21.00;88.20;;;;;;5046560;28;20724;-72
2023/06/04 11:15:39;;;;;;;;;;;21.10;89.00;;;;;;5056097;28;20023;-71
2023/06/04 11:18:05;;;;;;;;;;;21.20;90.80;;;;;;5047682;28;19947;-71
2023/06/04 11:20:30;;;;;;;;;;;21.20;90.10;;;;;;5057799;28;19925;-71
2023/06/04 11:22:57;;;;;;;;;;;21.30;88.80;;;;;;5038563;28;19970;-71
2023/06/04 11:25:26;;;;;;;;;;;21.30;88.50;;;;;;5052122;28;19920;-71
2023/06/04 11:27:52;;;;;;;;;;;21.30;85.60;;;;;;5043506;28;19931;-71
2023/06/04 11:30:18;;;;;;;;;;;21.40;87.10;;;;;;5041298;28;20024;-72
2023/06/04 11:32:43;;;;;;;;;;;21.40;84.70;;;;;;5039490;28;20039;-72
2023/06/04 11:35:11;;;;;;;;;;;21.40;84.30;;;;;;5051387;28;19951;-71
2023/06/04 11:37:36;;;;;;;;;;;21.40;80.60;;;;;;5042158;28;20019;-72
2023/06/04 11:40:05;;;;;;;;;;;21.40;82.50;;;;;;5049876;28;19931;-70
2023/06/04 11:42:30;;;;;;;;;;;21.40;83.40;;;;;;5039680;28;19931;-70
2023/06/04 11:44:56;;;;;;;;;;;21.40;82.60;;;;;;5068551;28;19920;-71
2023/06/04 11:47:22;;;;;;;;;;;21.50;80.70;;;;;;5053630;28;19931;-71
2023/06/04 11:49:53;;;;;;;;;;;21.50;82.10;;;;;;5056585;28;20383;-71
2023/06/04 11:52:19;;;;;;;;;;;21.60;85.40;;;;;;5040955;28;19920;-71
2023/06/04 11:54:45;;;;;;;;;;;21.70;81.60;;;;;;5038659;28;19921;-71
2023/06/04 11:57:10;;;;;;;;;;;21.70;81.40;;;;;;5039141;28;20354;-71
2023/06/04 11:59:36;;;;;;;;;;;21.80;83.50;;;;;;5055103;28;19921;-71
2023/06/04 12:02:03;;;;;;;;;;;21.80;82.60;;;;;;5038363;28;19931;-71
2023/06/04 12:04:29;;;;;;;;;;;21.90;80.30;;;;;;5056723;28;20011;-71
2023/06/04 12:07:00;;;;;;;;;;;21.90;84.20;;;;;;5039381;28;19920;-71
2023/06/04 12:09:29;;;;;;;;;;;22.00;85.20;;;;;;5039501;28;19947;-70
2023/06/04 12:12:01;;;;;;;;;;;22.10;78.50;;;;;;5038827;28;19932;-70
2023/06/04 12:14:27;;;;;;;;;;;22.10;80.70;;;;;;5058085;28;19935;-71
2023/06/04 12:16:56;;;;;;;;;;;22.10;82.70;;;;;;5038572;28;19917;-71
2023/06/04 12:19:21;;;;;;;;;;;22.20;79.60;;;;;;5063756;28;19968;-71
2023/06/04 12:21:47;;;;;;;;;;;22.10;79.80;;;;;;5040205;28;20063;-71
2023/06/04 12:24:13;;;;;;;;;;;22.20;82.90;;;;;;5038319;28;20020;-71
2023/06/04 12:26:43;;;;;;;;;;;22.20;77.00;;;;;;5037718;28;19928;-71
2023/06/04 12:29:13;;;;;;;;;;;22.20;78.80;;;;;;5039419;28;20283;-71
2023/06/04 12:31:39;;;;;;;;;;;22.20;79.00;;;;;;5038145;28;20383;-70
2023/06/04 12:34:05;;;;;;;;;;;22.20;77.00;;;;;;5058794;28;20336;-71
2023/06/04 12:36:33;;;;;;;;;;;22.30;76.90;;;;;;5046617;28;19931;-74
2023/06/04 12:39:00;;;;;;;;;;;22.30;77.40;;;;;;5041380;28;21705;-72
2023/06/04 12:41:26;;;;;;;;;;;22.30;72.90;;;;;;5034560;28;20666;-73
2023/06/04 12:43:52;;;;;;;;;;;22.30;78.10;;;;;;5060022;28;19975;-74
2023/06/04 12:46:18;;;;;;;;;;;22.30;78.90;;;;;;5037798;28;20303;-73
2023/06/04 12:48:46;;;;;;;;;;;22.40;75.60;;;;;;5077154;28;19986;-74
2023/06/04 12:51:12;;;;;;;;;;;22.40;74.80;;;;;;5049625;28;19924;-74
2023/06/04 12:53:41;;;;;;;;;;;22.50;77.80;;;;;;5055380;28;19923;-72
2023/06/04 12:56:06;;;;;;;;;;;22.50;74.10;;;;;;5050246;28;20124;-73
2023/06/04 12:58:32;;;;;;;;;;;22.50;74.20;;;;;;5049777;28;20414;-73
2023/06/04 13:00:58;;;;;;;;;;;22.50;73.60;;;;;;5063803;28;20635;-73
2023/06/04 13:03:23;;;;;;;;;;;22.50;74.10;;;;;;5054398;28;19925;-72
2023/06/04 13:05:51;;;;;;;;;;;22.50;75.20;;;;;;5060404;28;19931;-71
2023/06/04 13:08:16;;;;;;;;;;;22.60;74.70;;;;;;5065402;28;19924;-72
2023/06/04 13:10:42;;;;;;;;;;;22.60;71.70;;;;;;5046345;28;20391;-71
2023/06/04 13:13:07;;;;;;;;;;;22.60;74.00;;;;;;5056557;28;20404;-71
2023/06/04 13:15:33;;;;;;;;;;;22.70;74.40;;;;;;5061581;28;19928;-70
2023/06/04 13:17:59;;;;;;;;;;;22.80;74.40;;;;;;5071061;28;20354;-69
2023/06/04 13:20:25;;;;;;;;;;;22.90;73.50;;;;;;5072855;28;19943;-70
2023/06/04 13:22:50;;;;;;;;;;;22.90;73.50;;;;;;5041066;28;20395;-71
2023/06/04 13:25:16;;;;;;;;;;;23.00;74.30;;;;;;5053984;28;20426;-72
2023/06/04 13:27:41;;;;;;;;;;;23.10;74.10;;;;;;5039837;28;20449;-74
2023/06/04 13:30:07;;;;;;;;;;;23.10;73.50;;;;;;5049341;28;20416;-73
2023/06/04 13:32:32;;;;;;;;;;;23.10;71.30;;;;;;5057407;28;20306;-73
2023/06/04 13:34:58;;;;;;;;;;;23.20;73.70;;;;;;5051360;28;19920;-74
2023/06/04 13:37:23;;;;;;;;;;;23.20;70.20;;;;;;5061094;28;19934;-73
2023/06/04 13:39:49;;;;;;;;;;;23.10;69.20;;;;;;5039349;28;19925;-75
2023/06/04 13:42:15;;;;;;;;;;;23.10;70.70;;;;;;5076879;27;19988;-72
2023/06/04 13:44:40;;;;;;;;;;;23.20;70.50;;;;;;5050943;28;20056;-72
2023/06/04 13:47:06;;;;;;;;;;;23.20;68.30;;;;;;5047694;28;19924;-75
2023/06/04 13:49:32;;;;;;;;;;;23.20;69.30;;;;;;5086543;27;20383;-74
2023/06/04 13:51:58;;;;;;;;;;;23.20;67.60;;;;;;5058507;28;19928;-74
2023/06/04 13:54:24;;;;;;;;;;;23.30;69.30;;;;;;5052372;28;19924;-76
2023/06/04 13:56:49;;;;;;;;;;;23.30;67.70;;;;;;5034650;28;19925;-75
2023/06/04 13:59:15;;;;;;;;;;;23.30;68.50;;;;;;5034652;28;19925;-73
2023/06/04 14:01:41;;;;;;;;;;;23.30;68.90;;;;;;5052724;28;20351;-74
2023/06/04 14:04:06;;;;;;;;;;;23.40;70.10;;;;;;5060348;28;19930;-73
2023/06/04 14:06:32;;;;;;;;;;;23.40;70.70;;;;;;5063485;28;19953;-72
2023/06/04 14:08:58;;;;;;;;;;;23.50;66.60;;;;;;5064713;28;20011;-73
2023/06/04 14:11:24;;;;;;;;;;;23.40;67.90;;;;;;5047246;28;20019;-74